Time;durP1;ratioP1;P1;durP2;ratioP2;P2;SDS_P1;SDS_P2;PMS_P1;PMS_P2;Temp;Humidity;BMP_temperature;BMP_pressure;BME280_temperature;BME280_humidity;BME280_pressure;Samples;Min_cycle;Max_cycle;Signal;HPM_P1;HPM_P2
2022/05/09 00:01:06;;;;;;;;;;;;;;;19.43;50.33;100461.38;4413614;32;20009;-85
2022/05/09 00:03:37;;;;;;;;;;;;;;;19.54;50.03;100457.75;4416231;32;19985;-83
2022/05/09 00:06:04;;;;;;;;;;;;;;;19.34;50.44;100456.22;4414543;32;20031;-83
2022/05/09 00:08:38;;;;;;;;;;;;;;;19.43;50.20;100460.47;4416073;32;19985;-83
2022/05/09 00:11:05;;;;;;;;;;;;;;;19.48;50.45;100459.56;4414997;32;20331;-82
2022/05/09 00:13:34;;;;;;;;;;;;;;;19.42;50.62;100459.62;4416210;32;19986;-83
2022/05/09 00:16:02;;;;;;;;;;;;;;;19.40;50.75;100456.16;4414716;32;19982;-82
2022/05/09 00:18:29;;;;;;;;;;;;;;;19.46;50.30;100456.09;4414868;32;19985;-84
2022/05/09 00:20:55;;;;;;;;;;;;;;;19.44;50.11;100452.59;4416247;32;19994;-82
2022/05/09 00:23:22;;;;;;;;;;;;;;;19.34;50.75;100450.97;4415635;32;19970;-82
2022/05/09 00:25:49;;;;;;;;;;;;;;;19.36;50.61;100457.06;4421797;32;20044;-82
2022/05/09 00:28:16;;;;;;;;;;;;;;;19.32;50.91;100457.13;4425094;32;19990;-84
2022/05/09 00:30:43;;;;;;;;;;;;;;;19.18;51.23;100452.00;4415959;32;19993;-82
2022/05/09 00:33:12;;;;;;;;;;;;;;;19.13;51.29;100456.41;4414632;32;19970;-83
2022/05/09 00:35:43;;;;;;;;;;;;;;;19.07;51.31;100456.47;4415874;32;20001;-83
2022/05/09 00:38:11;;;;;;;;;;;;;;;19.11;51.29;100452.91;4415686;32;20028;-82
2022/05/09 00:41:28;;;;;;;;;;;;;;;19.02;51.50;100454.75;4415999;32;19995;-82
2022/05/09 00:43:28;;;;;;;;;;;;;;;18.90;52.09;100460.09;4415272;32;20023;-85
2022/05/09 00:45:55;;;;;;;;;;;;;;;18.87;52.31;100460.13;4415905;32;20012;-83
2022/05/09 00:48:22;;;;;;;;;;;;;;;18.90;52.15;100465.34;4416563;32;20040;-86
2022/05/09 00:50:49;;;;;;;;;;;;;;;18.71;52.67;100458.47;4415138;32;19982;-83
2022/05/09 00:53:15;;;;;;;;;;;;;;;18.71;52.82;100453.22;4415428;32;20099;-82
2022/05/09 00:55:45;;;;;;;;;;;;;;;18.77;52.60;100458.47;4416013;32;20012;-86
2022/05/09 00:58:13;;;;;;;;;;;;;;;18.77;52.57;100461.94;4415953;32;20448;-84
2022/05/09 01:00:41;;;;;;;;;;;;;;;18.79;52.53;100461.94;4414105;32;20350;-86
2022/05/09 01:03:10;;;;;;;;;;;;;;;18.79;52.56;100464.56;4414602;32;20022;-83
2022/05/09 01:05:37;;;;;;;;;;;;;;;18.58;53.40;100466.44;4411623;32;19986;-83
2022/05/09 01:08:05;;;;;;;;;;;;;;;18.44;53.96;100470.00;4415322;32;20315;-85
2022/05/09 01:10:33;;;;;;;;;;;;;;;18.33;54.30;100468.31;4416322;32;20056;-82
2022/05/09 01:13:01;;;;;;;;;;;;;;;18.54;53.46;100469.97;4413764;32;19978;-84
2022/05/09 01:15:28;;;;;;;;;;;;;;;18.63;53.28;100470.75;4414634;32;19989;-84
2022/05/09 01:17:54;;;;;;;;;;;;;;;18.62;53.32;100469.03;4415806;32;20008;-83
2022/05/09 01:20:21;;;;;;;;;;;;;;;18.54;53.58;100472.56;4401053;32;19993;-85
2022/05/09 01:22:48;;;;;;;;;;;;;;;18.48;53.83;100472.62;4415457;32;20822;-85
2022/05/09 01:25:16;;;;;;;;;;;;;;;18.51;53.68;100483.09;4415834;32;19993;-86
2022/05/09 01:27:44;;;;;;;;;;;;;;;18.45;53.92;100472.62;4415402;32;20024;-84
2022/05/09 01:30:11;;;;;;;;;;;;;;;18.52;53.73;100476.09;4414277;32;19996;-83
2022/05/09 01:32:39;;;;;;;;;;;;;;;18.48;53.88;100475.22;4415438;32;20343;-85
2022/05/09 01:35:10;;;;;;;;;;;;;;;18.45;54.25;100477.87;4415146;32;19990;-84
2022/05/09 01:37:37;;;;;;;;;;;;;;;18.27;54.55;100480.59;4406773;32;19982;-82
2022/05/09 01:40:04;;;;;;;;;;;;;;;18.37;54.04;100487.53;4398866;32;19982;-82
2022/05/09 01:42:35;;;;;;;;;;;;;;;18.35;54.30;100477.06;4400047;32;20028;-82
2022/05/09 01:45:11;;;;;;;;;;;;;;;18.02;55.34;100478.06;4350261;32;10000279;-82
2022/05/09 01:50:24;;;;;;;;;;;;;;;17.79;56.05;100472.06;4383977;32;19986;-82
2022/05/09 01:52:51;;;;;;;;;;;;;;;18.03;55.39;100469.34;4394159;32;20043;-82
2022/05/09 01:55:18;;;;;;;;;;;;;;;18.08;55.29;100475.44;4391111;32;20061;-82
2022/05/09 01:57:45;;;;;;;;;;;;;;;18.10;55.37;100478.91;4400191;32;20009;-83
2022/05/09 02:00:13;;;;;;;;;;;;;;;18.37;54.49;100474.41;4400348;32;19994;-84
2022/05/09 02:02:40;;;;;;;;;;;;;;;18.21;55.06;100473.63;4399701;32;20028;-83
2022/05/09 02:05:07;;;;;;;;;;;;;;;18.19;54.89;100479.75;4399944;32;20283;-84
2022/05/09 02:07:35;;;;;;;;;;;;;;;18.19;54.85;100471.88;4400607;32;19986;-83
2022/05/09 02:10:02;;;;;;;;;;;;;;;18.11;54.85;100467.56;4399591;32;19998;-85
2022/05/09 02:12:30;;;;;;;;;;;;;;;18.04;55.07;100476.31;4400100;32;20374;-83
2022/05/09 02:14:58;;;;;;;;;;;;;;;18.07;54.95;100476.31;4399657;32;19986;-82
2022/05/09 02:17:25;;;;;;;;;;;;;;;18.13;54.30;100476.28;4400237;32;19990;-83
2022/05/09 02:19:55;;;;;;;;;;;;;;;18.27;53.65;100477.97;4400176;32;20730;-83
2022/05/09 02:22:21;;;;;;;;;;;;;;;18.05;54.38;100488.53;4399038;32;20004;-82
2022/05/09 02:24:48;;;;;;;;;;;;;;;18.11;54.34;100480.66;4400107;32;19974;-83
2022/05/09 02:27:19;;;;;;;;;;;;;;;18.11;54.02;100480.66;4400532;32;19985;-84
2022/05/09 02:29:45;;;;;;;;;;;;;;;18.16;53.72;100477.16;4410801;32;19978;-83
2022/05/09 02:32:14;;;;;;;;;;;;;;;18.23;53.44;100486.72;4400298;32;19998;-82
2022/05/09 02:34:41;;;;;;;;;;;;;;;18.20;53.44;100489.38;4398831;32;19985;-83
2022/05/09 02:37:08;;;;;;;;;;;;;;;18.29;53.20;100497.19;4399808;32;20029;-83
2022/05/09 02:39:35;;;;;;;;;;;;;;;17.92;54.71;100492.09;4399480;32;20000;-82
2022/05/09 02:42:02;;;;;;;;;;;;;;;17.88;54.69;100491.22;4400074;32;19999;-83
2022/05/09 02:44:35;;;;;;;;;;;;;;;17.85;54.79;100496.47;4411084;32;19974;-84
2022/05/09 02:47:02;;;;;;;;;;;;;;;17.95;54.52;100489.47;4414666;32;19990;-83
2022/05/09 02:49:31;;;;;;;;;;;;;;;18.11;53.88;100495.50;4413945;32;19996;-83
2022/05/09 02:51:59;;;;;;;;;;;;;;;18.12;53.89;100490.28;4414776;32;20000;-83
2022/05/09 02:54:26;;;;;;;;;;;;;;;17.89;54.85;100492.09;4414513;32;20010;-83
2022/05/09 02:56:52;;;;;;;;;;;;;;;17.94;55.06;100495.59;4414237;32;19986;-83
2022/05/09 02:59:20;;;;;;;;;;;;;;;17.07;57.90;100499.19;4415337;32;20013;-83
2022/05/09 03:01:48;;;;;;;;;;;;;;;17.65;56.19;100488.66;4414411;32;20674;-84
2022/05/09 03:07:01;;;;;;;;;;;;;;;17.92;55.86;100492.09;4414207;32;20373;-85
2022/05/09 03:09:28;;;;;;;;;;;;;;;18.02;55.34;100491.16;4414812;32;19990;-84
2022/05/09 03:11:56;;;;;;;;;;;;;;;18.06;55.24;100495.53;4414477;32;19994;-86
2022/05/09 03:14:23;;;;;;;;;;;;;;;18.11;54.95;100488.53;4414297;32;19974;-84
2022/05/09 03:16:50;;;;;;;;;;;;;;;18.13;55.18;100497.25;4413844;32;19992;-83
2022/05/09 03:19:17;;;;;;;;;;;;;;;18.04;55.54;100492.03;4414379;32;19994;-83
2022/05/09 03:21:45;;;;;;;;;;;;;;;18.08;55.14;100499.00;4414506;32;19990;-84
2022/05/09 03:24:11;;;;;;;;;;;;;;;18.11;55.09;100499.00;4414966;32;20099;-83
2022/05/09 03:26:38;;;;;;;;;;;;;;;18.19;54.89;100500.72;4414337;32;20004;-86
2022/05/09 03:29:05;;;;;;;;;;;;;;;18.17;55.02;100502.47;4413169;32;20343;-83
2022/05/09 03:31:38;;;;;;;;;;;;;;;18.07;56.08;100493.78;4414345;32;20020;-85
2022/05/09 03:34:06;;;;;;;;;;;;;;;18.12;55.75;100500.75;4414030;32;20438;-83
2022/05/09 03:36:33;;;;;;;;;;;;;;;18.33;54.88;100504.16;4414296;32;20001;-86
2022/05/09 03:39:03;;;;;;;;;;;;;;;18.40;54.81;100505.00;4104823;32;10003839;-84
2022/05/09 03:41:31;;;;;;;;;;;;;;;18.38;54.99;100507.63;4399012;32;20445;-86
2022/05/09 03:43:58;;;;;;;;;;;;;;;18.47;55.22;100506.69;4398974;32;20004;-87
2022/05/09 03:46:25;;;;;;;;;;;;;;;18.51;55.18;100509.31;4401329;32;19992;-85
2022/05/09 03:48:52;;;;;;;;;;;;;;;18.51;55.05;100519.78;4401195;32;19971;-86
2022/05/09 03:51:19;;;;;;;;;;;;;;;18.33;55.99;100519.88;4401698;32;20061;-86
2022/05/09 03:53:45;;;;;;;;;;;;;;;18.49;55.39;100515.44;4400703;32;20014;-85
2022/05/09 03:56:13;;;;;;;;;;;;;;;18.40;55.68;100518.97;4400675;32;19990;-85
2022/05/09 03:58:39;;;;;;;;;;;;;;;18.48;55.85;100519.81;4401112;32;20004;-85
2022/05/09 04:01:08;;;;;;;;;;;;;;;18.45;56.08;100519.81;4401523;32;20323;-83
2022/05/09 04:03:35;;;;;;;;;;;;;;;18.45;56.09;100519.81;4398661;32;20012;-84
2022/05/09 04:06:03;;;;;;;;;;;;;;;18.46;56.08;100526.78;4412099;32;19989;-83
2022/05/09 04:08:29;;;;;;;;;;;;;;;18.33;55.76;100525.13;4401993;32;20025;-85
2022/05/09 04:10:56;;;;;;;;;;;;;;;18.34;55.70;100526.84;4401129;32;20257;-84
2022/05/09 04:13:23;;;;;;;;;;;;;;;18.45;54.49;100526.81;4386340;32;20056;-84
2022/05/09 04:18:37;;;;;;;;;;;;;;;18.76;53.70;100524.91;4415446;32;20311;-83
2022/05/09 04:21:05;;;;;;;;;;;;;;;18.79;52.93;100524.87;4413753;32;20010;-81
2022/05/09 04:23:33;;;;;;;;;;;;;;;18.63;55.24;100531.94;4412665;32;20619;-84
2022/05/09 04:26:01;;;;;;;;;;;;;;;18.93;53.75;100533.53;4415017;32;19974;-82
2022/05/09 04:28:27;;;;;;;;;;;;;;;19.01;53.90;100531.72;4413628;32;19986;-81
2022/05/09 04:30:55;;;;;;;;;;;;;;;19.11;53.58;100529.91;4411306;32;20005;-82
2022/05/09 04:33:28;;;;;;;;;;;;;;;19.20;54.32;100531.59;4414279;32;19981;-83
2022/05/09 04:35:55;;;;;;;;;;;;;;;19.34;53.11;100531.47;4414384;32;19995;-83
2022/05/09 04:38:23;;;;;;;;;;;;;;;19.27;53.07;100538.50;4416354;32;20061;-84
2022/05/09 04:40:56;;;;;;;;;;;;;;;19.19;53.61;100535.97;4415461;32;19994;-84
2022/05/09 04:43:24;;;;;;;;;;;;;;;19.35;52.71;100541.97;4414545;32;20038;-85
2022/05/09 04:45:51;;;;;;;;;;;;;;;19.38;52.21;100549.81;4412698;32;19978;-84
2022/05/09 04:48:19;;;;;;;;;;;;;;;19.45;52.20;100546.25;4413368;32;20047;-84
2022/05/09 04:50:45;;;;;;;;;;;;;;;19.56;52.17;100540.00;4414498;32;20000;-81
2022/05/09 04:53:12;;;;;;;;;;;;;;;19.63;52.61;100544.34;4414756;32;19985;-84
2022/05/09 04:55:39;;;;;;;;;;;;;;;19.63;51.45;100537.31;4413189;32;20326;-83
2022/05/09 04:58:06;;;;;;;;;;;;;;;19.67;52.04;100546.09;4408583;32;20013;-82
2022/05/09 05:00:33;;;;;;;;;;;;;;;19.76;52.04;100543.38;4408848;32;19994;-83
2022/05/09 05:03:00;;;;;;;;;;;;;;;19.77;51.60;100539.84;4412274;32;20053;-82
2022/05/09 05:05:27;;;;;;;;;;;;;;;19.75;52.21;100541.63;4415476;32;20031;-84
2022/05/09 05:07:54;;;;;;;;;;;;;;;19.87;52.11;100554.63;4415114;32;20436;-84
2022/05/09 05:10:26;;;;;;;;;;;;;;;19.91;51.78;100543.22;4415845;32;19990;-84
2022/05/09 05:12:53;;;;;;;;;;;;;;;19.88;51.48;100548.50;4415576;32;19982;-83
2022/05/09 05:15:20;;;;;;;;;;;;;;;20.07;50.42;100549.16;4415186;32;19974;-82
2022/05/09 05:17:47;;;;;;;;;;;;;;;19.94;50.88;100548.44;4414940;32;20393;-83
2022/05/09 05:20:14;;;;;;;;;;;;;;;19.96;51.21;100551.03;4416083;32;19977;-83
2022/05/09 05:22:43;;;;;;;;;;;;;;;20.04;51.16;100554.44;4411072;32;19992;-84
2022/05/09 05:25:11;;;;;;;;;;;;;;;20.17;51.25;100556.03;4414232;32;19998;-83
2022/05/09 05:27:37;;;;;;;;;;;;;;;20.17;51.62;100565.69;4413373;32;19990;-84
2022/05/09 05:30:05;;;;;;;;;;;;;;;20.16;51.69;100563.94;4414224;32;19978;-84
2022/05/09 05:32:36;;;;;;;;;;;;;;;20.14;51.79;100565.72;4414589;32;20038;-84
2022/05/09 05:35:07;;;;;;;;;;;;;;;20.23;52.06;100565.63;4414077;32;19974;-83
2022/05/09 05:37:34;;;;;;;;;;;;;;;20.29;51.99;100569.91;4415386;32;19982;-84
2022/05/09 05:40:01;;;;;;;;;;;;;;;20.30;52.19;100571.69;4415422;32;20006;-83
2022/05/09 05:42:28;;;;;;;;;;;;;;;20.39;52.14;100577.69;4415376;32;19994;-84
2022/05/09 05:44:55;;;;;;;;;;;;;;;20.39;52.17;100582.94;4413217;32;19999;-83
2022/05/09 05:47:23;;;;;;;;;;;;;;;20.42;52.14;100579.37;4403727;32;19989;-84
2022/05/09 05:49:50;;;;;;;;;;;;;;;20.43;52.20;100579.37;4400159;32;20339;-84
2022/05/09 05:52:17;;;;;;;;;;;;;;;20.52;52.11;100582.84;4397932;32;19978;-84
2022/05/09 05:54:45;;;;;;;;;;;;;;;20.55;52.14;100582.75;4400239;32;20023;-84
2022/05/09 05:57:22;;;;;;;;;;;;;;;20.60;52.13;100591.47;4400406;32;20046;-84
2022/05/09 05:59:49;;;;;;;;;;;;;;;20.51;52.18;100587.19;4399959;32;20024;-84
2022/05/09 06:02:16;;;;;;;;;;;;;;;20.70;52.08;100587.84;4387273;32;19974;-85
2022/05/09 06:04:43;;;;;;;;;;;;;;;20.63;52.39;100591.44;4400408;32;19978;-84
2022/05/09 06:07:12;;;;;;;;;;;;;;;20.57;52.55;100591.53;4400009;32;19993;-84
2022/05/09 06:09:39;;;;;;;;;;;;;;;20.58;52.25;100603.78;4389733;32;19998;-83
2022/05/09 06:12:07;;;;;;;;;;;;;;;20.56;52.15;100600.31;4398629;32;19989;-84
2022/05/09 06:14:34;;;;;;;;;;;;;;;20.65;52.08;100605.47;4400164;32;20012;-82
2022/05/09 06:17:00;;;;;;;;;;;;;;;20.70;51.98;100605.38;4391028;32;20049;-83
2022/05/09 06:19:27;;;;;;;;;;;;;;;20.83;51.52;100602.56;4386441;32;20090;-83
2022/05/09 06:21:56;;;;;;;;;;;;;;;20.78;51.78;100607.03;4399757;32;20433;-84
2022/05/09 06:24:24;;;;;;;;;;;;;;;20.81;51.70;100601.72;4412156;32;19984;-83
2022/05/09 06:26:52;;;;;;;;;;;;;;;20.98;51.82;100608.50;4411916;32;19986;-83
2022/05/09 06:29:18;;;;;;;;;;;;;;;20.98;52.33;100611.16;4415280;32;19985;-81
2022/05/09 06:32:06;;;;;;;;;;;;;;;20.94;52.74;100606.81;4414865;32;19990;-81
2022/05/09 06:34:33;;;;;;;;;;;;;;;20.92;52.41;100609.47;4414648;32;20000;-82
2022/05/09 06:37:00;;;;;;;;;;;;;;;20.95;52.47;100608.56;4413501;32;19986;-82
2022/05/09 06:39:28;;;;;;;;;;;;;;;21.09;52.48;100611.84;4414933;32;20689;-81
2022/05/09 06:41:55;;;;;;;;;;;;;;;21.12;51.99;100611.78;4413597;32;20317;-81
2022/05/09 06:44:28;;;;;;;;;;;;;;;21.11;52.10;100617.97;4399525;32;20012;-81
2022/05/09 06:46:55;;;;;;;;;;;;;;;21.15;51.64;100617.03;4412849;32;20331;-82
2022/05/09 06:49:24;;;;;;;;;;;;;;;21.34;50.62;100623.75;4415160;32;19978;-82
2022/05/09 06:51:51;;;;;;;;;;;;;;;21.42;50.89;100620.19;4408684;32;20034;-82
2022/05/09 06:54:21;;;;;;;;;;;;;;;21.24;51.33;100623.91;4398896;32;19987;-81
2022/05/09 06:56:48;;;;;;;;;;;;;;;21.44;51.09;100624.53;4392592;32;19986;-83
2022/05/09 06:59:15;;;;;;;;;;;;;;;21.34;51.11;100626.38;4397829;32;19978;-83
2022/05/09 07:01:43;;;;;;;;;;;;;;;21.34;51.29;100631.66;4408147;32;19986;-81
2022/05/09 07:04:11;;;;;;;;;;;;;;;21.52;51.00;100627.91;4414393;32;19990;-82
2022/05/09 07:06:38;;;;;;;;;;;;;;;21.49;51.30;100632.34;4414613;32;20006;-80
2022/05/09 07:09:09;;;;;;;;;;;;;;;21.44;51.29;100639.44;4421682;32;19989;-80
2022/05/09 07:11:37;;;;;;;;;;;;;;;21.47;51.50;100639.41;4408894;32;19994;-82
2022/05/09 07:14:03;;;;;;;;;;;;;;;21.36;51.70;100637.81;4411101;32;20324;-80
2022/05/09 07:16:41;;;;;;;;;;;;;;;21.67;50.81;100633.81;4408359;32;19994;-81
2022/05/09 07:19:15;;;;;;;;;;;;;;;21.53;51.50;100639.28;4407029;32;20057;-82
2022/05/09 07:21:59;;;;;;;;;;;;;;;21.56;52.19;100644.53;4401638;32;19993;-82
2022/05/09 07:24:26;;;;;;;;;;;;;;;21.72;50.82;100640.72;4401647;32;19978;-82
2022/05/09 07:26:53;;;;;;;;;;;;;;;21.68;51.35;100644.31;4401074;32;19979;-81
2022/05/09 07:29:20;;;;;;;;;;;;;;;21.66;51.44;100639.97;4401443;32;19970;-82
2022/05/09 07:31:46;;;;;;;;;;;;;;;21.70;51.54;100642.53;4401612;32;20007;-82
2022/05/09 07:34:14;;;;;;;;;;;;;;;21.57;52.31;100641.00;4402285;32;20759;-85
2022/05/09 07:36:41;;;;;;;;;;;;;;;21.67;52.18;100647.88;4407512;32;19990;-83
2022/05/09 07:39:09;;;;;;;;;;;;;;;21.79;52.03;100647.66;4414275;32;19969;-83
2022/05/09 07:41:38;;;;;;;;;;;;;;;21.89;50.46;100642.19;4409405;32;19996;-83
2022/05/09 07:44:05;;;;;;;;;;;;;;;21.94;50.69;100648.28;4415136;32;19991;-83
2022/05/09 07:46:32;;;;;;;;;;;;;;;22.15;50.16;100644.41;4425677;32;19989;-82
2022/05/09 07:49:14;;;;;;;;;;;;;;;22.13;50.80;100647.03;4410706;32;20023;-81
2022/05/09 07:51:41;;;;;;;;;;;;;;;22.17;49.73;100648.75;4404967;32;19992;-80
2022/05/09 07:54:18;;;;;;;;;;;;;;;22.29;49.04;100647.66;4396240;32;19963;-79
2022/05/09 07:56:54;;;;;;;;;;;;;;;22.31;49.73;100648.50;4395374;32;19978;-81
2022/05/09 07:59:21;;;;;;;;;;;;;;;22.44;48.52;100651.78;4396405;32;19986;-81
2022/05/09 08:02:10;;;;;;;;;;;;;;;22.56;47.33;100662.09;4398704;32;20445;-84
2022/05/09 08:04:37;;;;;;;;;;;;;;;22.51;46.76;100653.38;4398197;32;19986;-81
2022/05/09 08:07:04;;;;;;;;;;;;;;;22.40;46.81;100660.63;4400216;32;19974;-82
2022/05/09 08:09:30;;;;;;;;;;;;;;;22.39;46.70;100656.25;4378247;32;19993;-82
2022/05/09 08:11:58;;;;;;;;;;;;;;;22.50;46.13;100656.94;4383690;32;19999;-82
2022/05/09 08:14:25;;;;;;;;;;;;;;;22.54;46.36;100655.97;4383047;32;20012;-82
2022/05/09 08:16:52;;;;;;;;;;;;;;;22.78;45.74;100651.06;4379423;32;19982;-81
2022/05/09 08:19:19;;;;;;;;;;;;;;;22.73;46.20;100659.97;4382292;32;19982;-82
2022/05/09 08:21:50;;;;;;;;;;;;;;;22.66;47.97;100647.81;4387456;32;19983;-82
2022/05/09 08:24:24;;;;;;;;;;;;;;;22.66;48.27;100652.22;4384026;32;20025;-80
2022/05/09 08:26:51;;;;;;;;;;;;;;;22.91;46.96;100653.44;4377410;32;19986;-81
2022/05/09 08:29:18;;;;;;;;;;;;;;;23.16;45.42;100645.84;4383707;32;20020;-81
2022/05/09 08:31:45;;;;;;;;;;;;;;;23.17;45.70;100649.38;4375959;32;19999;-82
2022/05/09 08:34:12;;;;;;;;;;;;;;;23.05;46.84;100645.22;4379978;32;20002;-82
2022/05/09 08:36:53;;;;;;;;;;;;;;;23.19;46.66;100643.13;4377273;32;20006;-84
2022/05/09 08:39:21;;;;;;;;;;;;;;;23.37;44.37;100646.25;4371222;32;19990;-83
2022/05/09 08:41:49;;;;;;;;;;;;;;;23.36;46.17;100644.53;4372496;32;20004;-80
2022/05/09 08:44:27;;;;;;;;;;;;;;;23.13;47.01;100642.41;4383906;32;20292;-80
2022/05/09 08:47:13;;;;;;;;;;;;;;;23.61;44.49;100640.41;4385362;32;19987;-80
2022/05/09 08:49:51;;;;;;;;;;;;;;;23.84;44.57;100641.63;4378941;32;19979;-80
2022/05/09 08:52:21;;;;;;;;;;;;;;;23.90;44.35;100641.47;4390118;32;20741;-80
2022/05/09 08:54:49;;;;;;;;;;;;;;;23.92;44.33;100644.91;4399271;32;20044;-81
2022/05/09 08:57:16;;;;;;;;;;;;;;;24.33;42.66;100645.59;4398541;32;19982;-81
2022/05/09 08:59:52;;;;;;;;;;;;;;;24.45;42.30;100644.41;4399259;32;20004;-81
2022/05/09 09:02:27;;;;;;;;;;;;;;;24.47;40.29;100646.06;4379470;32;19997;-81
2022/05/09 09:04:58;;;;;;;;;;;;;;;24.48;41.29;100645.19;4377950;32;20058;-81
2022/05/09 09:07:30;;;;;;;;;;;;;;;24.38;42.08;100648.97;4376808;32;19998;-81
2022/05/09 09:10:16;;;;;;;;;;;;;;;24.20;42.91;100650.34;4389066;32;19979;-81
2022/05/09 09:13:02;;;;;;;;;;;;;;;24.52;38.25;100653.91;4385977;32;20038;-81
2022/05/09 09:15:29;;;;;;;;;;;;;;;24.26;41.88;100638.72;4380507;32;20090;-81
2022/05/09 09:17:58;;;;;;;;;;;;;;;24.22;41.25;100652.94;4382765;32;19974;-81
2022/05/09 09:20:31;;;;;;;;;;;;;;;24.36;39.68;100645.50;4385991;32;20025;-81
2022/05/09 09:23:01;;;;;;;;;;;;;;;24.74;36.64;100651.50;4385632;32;20032;-81
2022/05/09 09:25:42;;;;;;;;;;;;;;;24.45;38.25;100655.88;4400399;32;20032;-81
2022/05/09 09:28:17;;;;;;;;;;;;;;;24.55;38.12;100652.03;4399769;32;19986;-81
2022/05/09 09:30:44;;;;;;;;;;;;;;;24.41;40.34;100648.00;4389783;32;20001;-81
2022/05/09 09:33:13;;;;;;;;;;;;;;;24.83;35.47;100648.59;4381344;32;19985;-81
2022/05/09 09:35:57;;;;;;;;;;;;;;;24.29;39.20;100649.22;4402832;32;19998;-81
2022/05/09 09:38:31;;;;;;;;;;;;;;;24.52;37.83;100657.41;4381440;32;20382;-81
2022/05/09 09:41:21;;;;;;;;;;;;;;;24.73;37.08;100655.03;4385235;32;19996;-83
2022/05/09 09:43:49;;;;;;;;;;;;;;;24.67;38.38;100657.91;4378964;32;20483;-84
2022/05/09 09:46:16;;;;;;;;;;;;;;;24.82;36.69;100644.19;4384243;32;20043;-84
2022/05/09 09:48:43;;;;;;;;;;;;;;;24.51;39.04;100650.41;4385871;32;20042;-82
2022/05/09 09:51:12;;;;;;;;;;;;;;;24.42;38.40;100650.66;4384813;32;19971;-82
2022/05/09 09:53:40;;;;;;;;;;;;;;;24.77;36.83;100651.41;4386227;32;20002;-81
2022/05/09 09:56:22;;;;;;;;;;;;;;;24.56;37.46;100645.81;4385449;32;19979;-82
2022/05/09 09:58:50;;;;;;;;;;;;;;;24.96;38.43;100642.00;4385113;32;19983;-81
2022/05/09 10:01:17;;;;;;;;;;;;;;;24.88;39.03;100644.00;4384372;32;19987;-82
2022/05/09 10:03:46;;;;;;;;;;;;;;;24.68;38.13;100641.97;4383846;32;20076;-82
2022/05/09 10:06:22;;;;;;;;;;;;;;;24.95;38.43;100642.94;4384961;32;19990;-82
2022/05/09 10:08:59;;;;;;;;;;;;;;;25.25;36.82;100637.63;4373314;32;19978;-82
2022/05/09 10:11:28;;;;;;;;;;;;;;;25.37;35.96;100631.94;4400757;32;19978;-81
2022/05/09 10:13:59;;;;;;;;;;;;;;;25.67;36.29;100626.53;4398533;32;19996;-80
2022/05/09 10:16:26;;;;;;;;;;;;;;;25.66;37.51;100627.44;4399739;32;19970;-81
2022/05/09 10:18:53;;;;;;;;;;;;;;;26.09;34.93;100620.69;4400824;32;19974;-81
2022/05/09 10:27:21;;;;;;;;;;;;;;;27.13;32.61;100606.13;4410480;32;19982;-82
2022/05/09 10:29:55;;;;;;;;;;;;;;;27.47;32.16;100607.44;4396969;32;20499;-82
2022/05/09 10:32:45;;;;;;;;;;;;;;;27.75;32.55;100594.69;4399040;32;20725;-82
2022/05/09 10:35:12;;;;;;;;;;;;;;;27.74;33.56;100595.63;4387423;32;20544;-82
2022/05/09 10:37:48;;;;;;;;;;;;;;;28.01;30.46;100592.72;4398775;32;19989;-83
2022/05/09 10:40:18;;;;;;;;;;;;;;;28.00;30.04;100588.34;4394554;32;20035;-83
2022/05/09 10:42:46;;;;;;;;;;;;;;;28.02;28.73;100581.16;4398372;32;19986;-81
2022/05/09 10:45:16;;;;;;;;;;;;;;;28.00;29.46;100583.03;4400251;32;19974;-82
2022/05/09 10:48:04;;;;;;;;;;;;;;;28.07;29.03;100583.63;4399648;32;20421;-83
2022/05/09 10:50:51;;;;;;;;;;;;;;;27.52;32.17;100581.53;4399775;32;19978;-82
2022/05/09 10:53:27;;;;;;;;;;;;;;;28.05;30.59;100575.72;4394122;32;20057;-83
2022/05/09 10:56:13;;;;;;;;;;;;;;;28.37;29.49;100565.41;4398496;32;19996;-80
2022/05/09 10:58:42;;;;;;;;;;;;;;;28.24;30.54;100584.59;4396712;32;19986;-81
2022/05/09 11:01:12;;;;;;;;;;;;;;;27.79;29.33;100568.84;4402162;32;19990;-83
2022/05/09 11:03:39;;;;;;;;;;;;;;;28.06;31.87;100561.47;4400351;32;20004;-83
2022/05/09 11:06:21;;;;;;;;;;;;;;;28.27;31.09;100568.47;4400894;32;20060;-82
2022/05/09 11:08:57;;;;;;;;;;;;;;;28.18;32.20;100566.22;4405888;32;20311;-82
2022/05/09 11:11:26;;;;;;;;;;;;;;;28.19;30.92;100559.97;4399951;32;20026;-82
2022/05/09 11:13:56;;;;;;;;;;;;;;;28.47;30.35;100556.06;4400036;32;19982;-82
2022/05/09 11:16:41;;;;;;;;;;;;;;;28.37;27.92;100560.06;4398035;32;20418;-83
2022/05/09 11:19:25;;;;;;;;;;;;;;;28.55;28.38;100558.38;4398189;32;20295;-84
2022/05/09 11:22:10;;;;;;;;;;;;;;;28.36;32.32;100547.66;4409654;32;19983;-83
2022/05/09 11:24:37;;;;;;;;;;;;;;;28.76;28.64;100548.50;4393151;32;20460;-83
2022/05/09 11:27:14;;;;;;;;;;;;;;;28.94;28.06;100550.25;4396015;32;20065;-81
2022/05/09 11:30:21;;;;;;;;;;;;;;;29.01;27.04;100541.06;4403961;32;19987;-83
2022/05/09 11:32:51;;;;;;;;;;;;;;;28.88;26.83;100534.59;4398558;32;19999;-83
2022/05/09 11:35:29;;;;;;;;;;;;;;;28.31;30.85;100533.72;4398753;32;20032;-82
2022/05/09 11:37:55;;;;;;;;;;;;;;;27.59;32.08;100530.66;4411125;32;19996;-84
2022/05/09 11:40:31;;;;;;;;;;;;;;;27.74;31.33;100518.47;4400692;32;20024;-85
2022/05/09 11:45:57;;;;;;;;;;;;;;;28.31;29.89;100523.94;4401607;32;20271;-83
2022/05/09 11:48:25;;;;;;;;;;;;;;;28.66;27.92;100519.63;4391213;32;20505;-84
2022/05/09 11:50:56;;;;;;;;;;;;;;;28.29;28.87;100537.31;4398816;32;20367;-83
2022/05/09 11:53:24;;;;;;;;;;;;;;;27.95;29.68;100542.44;4392089;32;20025;-79
2022/05/09 11:55:52;;;;;;;;;;;;;;;27.69;30.72;100541.75;4392474;32;19982;-80
2022/05/09 11:58:18;;;;;;;;;;;;;;;26.92;28.15;100548.53;4408076;32;20031;-81
2022/05/09 12:00:47;;;;;;;;;;;;;;;26.13;28.35;100559.50;4393034;32;20663;-80
2022/05/09 12:03:15;;;;;;;;;;;;;;;25.86;29.35;100556.03;4391616;32;19987;-79
2022/05/09 12:05:48;;;;;;;;;;;;;;;25.64;33.16;100555.03;4398810;32;19977;-81
2022/05/09 12:08:18;;;;;;;;;;;;;;;25.20;34.02;100544.12;4389349;32;19990;-81
2022/05/09 12:10:49;;;;;;;;;;;;;;;24.91;35.83;100537.97;4398292;32;19986;-80
2022/05/09 12:13:19;;;;;;;;;;;;;;;24.99;37.38;100530.66;4399988;32;20027;-79
2022/05/09 12:15:58;;;;;;;;;;;;;;;24.80;40.20;100533.03;4398982;32;19998;-78
2022/05/09 12:18:29;;;;;;;;;;;;;;;24.51;37.85;100533.94;4393915;32;19986;-82
2022/05/09 12:21:12;;;;;;;;;;;;;;;24.51;37.78;100533.94;4392172;32;19983;-80
2022/05/09 12:23:42;;;;;;;;;;;;;;;24.51;43.98;100539.22;4395485;32;20036;-80
2022/05/09 12:26:10;;;;;;;;;;;;;;;24.19;43.28;100547.22;4388595;32;20012;-80
2022/05/09 12:28:40;;;;;;;;;;;;;;;24.06;41.76;100530.84;4401145;32;19982;-85
2022/05/09 12:31:25;;;;;;;;;;;;;;;24.24;43.46;100540.00;4380236;32;783376;-81
2022/05/09 12:33:53;;;;;;;;;;;;;;;24.33;44.94;100539.72;4398276;32;19994;-81
2022/05/09 12:36:22;;;;;;;;;;;;;;;23.96;44.50;100550.50;4400075;32;19977;-83
2022/05/09 12:38:50;;;;;;;;;;;;;;;23.70;47.69;100559.13;4091473;32;10004030;-79
2022/05/09 12:41:19;;;;;;;;;;;;;;;23.52;45.97;100561.34;4383806;32;20005;-79
2022/05/09 12:44:07;;;;;;;;;;;;;;;23.51;46.95;100564.84;4383904;32;19975;-79
2022/05/09 12:46:37;;;;;;;;;;;;;;;23.40;47.70;100556.34;4381417;32;20415;-81
2022/05/09 12:49:05;;;;;;;;;;;;;;;23.40;48.42;100559.00;4383137;32;20041;-82
2022/05/09 12:51:33;;;;;;;;;;;;;;;23.36;48.67;100566.13;4383425;32;19986;-82
2022/05/09 12:54:00;;;;;;;;;;;;;;;23.24;48.62;100565.56;4383823;32;20037;-80
2022/05/09 12:56:29;;;;;;;;;;;;;;;23.23;50.48;100574.38;4392837;32;20409;-81
2022/05/09 12:58:59;;;;;;;;;;;;;;;23.20;51.07;100576.22;4414375;32;20003;-80
2022/05/09 13:01:27;;;;;;;;;;;;;;;23.30;51.66;100576.00;4411439;32;20084;-82
2022/05/09 13:04:18;;;;;;;;;;;;;;;23.26;51.95;100576.94;4409004;32;19982;-82
2022/05/09 13:06:48;;;;;;;;;;;;;;;23.18;53.08;100588.56;4411761;32;20004;-81